Time;durP1;ratioP1;P1;durP2;ratioP2;P2;SDS_P1;SDS_P2;PMS_P1;PMS_P2;Temp;Humidity;BMP_temperature;BMP_pressure;BME280_temperature;BME280_humidity;BME280_pressure;Samples;Min_cycle;Max_cycle;Signal;HPM_P1;HPM_P2
2023/04/03 00:01:05;;;;;;;4.00;1.60;;;;;;;-1.63;100.00;102387.00;4957528;28;20122;-78
2023/04/03 00:03:32;;;;;;;4.40;1.40;;;;;;;-1.72;100.00;102391.66;4931451;28;20106;-78
2023/04/03 00:05:59;;;;;;;3.63;1.43;;;;;;;-1.83;100.00;102393.66;4964915;28;20042;-78
2023/04/03 00:08:26;;;;;;;8.60;1.90;;;;;;;-1.83;100.00;102391.06;4957358;28;20039;-78
2023/04/03 00:10:53;;;;;;;4.90;1.10;;;;;;;-1.85;100.00;102394.34;4948625;28;20046;-78
2023/04/03 00:13:19;;;;;;;7.77;2.17;;;;;;;-1.82;100.00;102387.66;4953114;28;20058;-78
2023/04/03 00:15:46;;;;;;;3.33;1.37;;;;;;;-1.80;100.00;102385.16;4949308;28;20042;-78
2023/04/03 00:18:13;;;;;;;4.13;0.97;;;;;;;-1.88;100.00;102389.88;4948913;28;20180;-78
2023/04/03 00:20:40;;;;;;;5.37;1.33;;;;;;;-1.87;100.00;102386.47;4933867;28;20050;-77
2023/04/03 00:23:06;;;;;;;4.73;1.07;;;;;;;-1.84;100.00;102391.84;4948802;28;20058;-78
2023/04/03 00:25:34;;;;;;;3.73;1.20;;;;;;;-1.80;100.00;102393.81;4965649;28;20047;-78
2023/04/03 00:28:01;;;;;;;4.87;1.40;;;;;;;-1.90;100.00;102396.69;4933135;28;20043;-78
2023/04/03 00:30:28;;;;;;;2.77;1.20;;;;;;;-2.00;100.00;102384.91;4945911;28;20519;-78
2023/04/03 00:32:55;;;;;;;2.13;1.10;;;;;;;-2.06;100.00;102392.31;4947769;28;20074;-78
2023/04/03 00:35:22;;;;;;;2.57;1.00;;;;;;;-2.07;100.00;102390.53;4965421;28;20446;-78
2023/04/03 00:37:53;;;;;;;2.87;1.00;;;;;;;-2.07;100.00;102395.69;4939410;28;20046;-78
2023/04/03 00:40:21;;;;;;;9.27;1.47;;;;;;;-2.09;100.00;102393.84;4949508;28;20038;-77
2023/04/03 00:42:50;;;;;;;2.07;1.00;;;;;;;-2.06;100.00;102396.59;4929651;28;20047;-77
2023/04/03 00:45:39;;;;;;;4.10;1.10;;;;;;;-2.06;100.00;102400.06;4929951;28;20082;-78
2023/04/03 00:48:08;;;;;;;1.90;0.80;;;;;;;-2.15;100.00;102396.94;4930824;28;20043;-77
2023/04/03 00:50:37;;;;;;;3.40;1.10;;;;;;;-2.19;100.00;102400.16;4930403;29;20042;-78
2023/04/03 00:53:06;;;;;;;2.17;0.93;;;;;;;-2.21;100.00;102403.47;4936303;28;20389;-77
2023/04/03 00:55:35;;;;;;;3.67;1.27;;;;;;;-2.20;100.00;102395.78;4959584;29;20059;-77
2023/04/03 00:58:03;;;;;;;2.03;0.83;;;;;;;-2.33;100.00;102394.16;4946205;28;20046;-77
2023/04/03 01:00:30;;;;;;;7.33;1.53;;;;;;;-2.41;100.00;102395.41;4975651;28;20042;-77
2023/04/03 01:02:56;;;;;;;2.33;0.90;;;;;;;-2.51;100.00;102384.44;4963716;28;20127;-78
2023/04/03 01:05:23;;;;;;;2.23;1.43;;;;;;;-2.60;100.00;102382.19;4963907;28;20031;-78
2023/04/03 01:07:51;;;;;;;3.63;1.20;;;;;;;-2.65;100.00;102376.72;4962187;28;20061;-77
2023/04/03 01:10:20;;;;;;;6.97;1.37;;;;;;;-2.20;100.00;102385.41;4947920;28;20130;-78
2023/04/03 01:12:49;;;;;;;2.27;1.00;;;;;;;-1.95;100.00;102398.09;4931204;28;20078;-77
2023/04/03 01:15:22;;;;;;;1.50;1.27;;;;;;;-2.12;100.00;102402.28;4936359;28;20066;-77
2023/04/03 01:17:52;;;;;;;2.33;1.27;;;;;;;-2.28;100.00;102403.09;4958438;28;20062;-78
2023/04/03 01:20:28;;;;;;;3.77;1.20;;;;;;;-2.31;100.00;102410.69;4958771;28;20066;-78
2023/04/03 01:23:10;;;;;;;2.20;1.20;;;;;;;-2.48;100.00;102403.59;4939958;29;20043;-77
2023/04/03 01:25:44;;;;;;;4.10;1.07;;;;;;;-2.49;100.00;102396.66;4956838;28;20106;-77
2023/04/03 01:28:15;;;;;;;4.47;1.05;;;;;;;-2.59;100.00;102399.50;4945813;28;20053;-77
2023/04/03 01:30:50;;;;;;;4.47;1.10;;;;;;;-2.65;100.00;102402.59;4937249;29;20035;-78
2023/04/03 01:33:16;;;;;;;2.97;1.20;;;;;;;-2.65;100.00;102406.88;4952800;28;20416;-77
2023/04/03 01:35:43;;;;;;;4.50;1.07;;;;;;;-2.73;100.00;102408.09;4943754;28;20050;-77
2023/04/03 01:38:10;;;;;;;2.20;1.60;;;;;;;-2.73;100.00;102413.28;4957979;28;20141;-77
2023/04/03 01:40:37;;;;;;;3.30;1.10;;;;;;;-2.81;100.00;102417.97;4935720;28;20049;-77
2023/04/03 01:43:04;;;;;;;2.47;1.10;;;;;;;-2.78;100.00;102412.06;4960411;28;20039;-78
2023/04/03 01:45:31;;;;;;;2.27;1.00;;;;;;;-2.81;100.00;102417.06;4951366;28;20042;-77
2023/04/03 01:47:58;;;;;;;3.13;1.43;;;;;;;-2.79;100.00;102420.63;4929383;28;20059;-78
2023/04/03 01:50:25;;;;;;;4.00;1.40;;;;;;;-2.86;100.00;102424.53;4943591;28;20035;-77
2023/04/03 01:52:51;;;;;;;6.03;1.30;;;;;;;-2.80;100.00;102431.78;4957454;28;20043;-77
2023/04/03 01:55:18;;;;;;;4.27;1.20;;;;;;;-2.85;100.00;102427.25;4940227;28;20043;-77
2023/04/03 01:57:45;;;;;;;3.20;0.97;;;;;;;-2.87;100.00;102433.09;4943999;28;20054;-77
2023/04/03 02:00:12;;;;;;;3.80;1.10;;;;;;;-2.95;100.00;102434.31;4942436;28;20511;-76
2023/04/03 02:02:39;;;;;;;2.50;0.97;;;;;;;-2.88;100.00;102436.47;4928235;29;20043;-78
2023/04/03 02:05:06;;;;;;;2.37;1.00;;;;;;;-2.95;100.00;102436.91;4928460;28;20046;-77
2023/04/03 02:07:33;;;;;;;1.30;1.00;;;;;;;-2.95;100.00;102437.78;4941724;28;20067;-77
2023/04/03 02:10:00;;;;;;;3.47;1.53;;;;;;;-2.91;100.00;102436.31;4942730;28;20042;-78
2023/04/03 02:12:26;;;;;;;1.07;0.70;;;;;;;-2.95;100.00;102437.78;4956872;28;20078;-77
2023/04/03 02:14:53;;;;;;;3.93;1.20;;;;;;;-2.91;100.00;102437.19;4943472;28;20042;-77
2023/04/03 02:17:20;;;;;;;5.23;1.97;;;;;;;-3.01;100.00;102441.72;4943977;28;20105;-77
2023/04/03 02:19:46;;;;;;;2.53;1.00;;;;;;;-3.02;100.00;102433.06;4960107;28;20039;-78
2023/04/03 02:22:13;;;;;;;4.60;1.13;;;;;;;-3.07;100.00;102442.22;4976977;28;20039;-78
2023/04/03 02:24:40;;;;;;;5.33;1.20;;;;;;;-3.05;100.00;102431.94;4958097;28;20050;-77
2023/04/03 02:27:07;;;;;;;3.47;1.13;;;;;;;-3.06;100.00;102437.94;4927235;28;20047;-77
2023/04/03 02:29:33;;;;;;;2.17;1.20;;;;;;;-3.09;100.00;102442.91;4939092;28;20046;-78
2023/04/03 02:32:00;;;;;;;4.23;1.30;;;;;;;-3.05;100.00;102444.88;4969308;28;20039;-77
2023/04/03 02:34:27;;;;;;;2.13;1.00;;;;;;;-3.13;100.00;102444.41;4925566;28;20036;-77
2023/04/03 02:36:53;;;;;;;1.53;1.00;;;;;;;-3.25;100.00;102446.22;4940390;28;20047;-77
2023/04/03 02:39:20;;;;;;;3.50;1.30;;;;;;;-3.15;100.00;102448.56;4942232;28;20046;-78
2023/04/03 02:41:47;;;;;;;2.50;1.10;;;;;;;-3.15;100.00;102449.47;4958525;28;20604;-77
2023/04/03 02:44:15;;;;;;;3.07;1.23;;;;;;;-3.08;100.00;102453.34;4956783;28;20086;-78
2023/04/03 02:46:41;;;;;;;1.30;0.87;;;;;;;-3.29;100.00;102452.84;4947585;28;20042;-78
2023/04/03 02:49:08;;;;;;;4.63;1.00;;;;;;;-3.27;100.00;102458.16;4950122;28;20051;-77
2023/04/03 02:51:35;;;;;;;2.63;1.20;;;;;;;-3.32;100.00;102451.78;4963805;28;20047;-77
2023/04/03 02:54:02;;;;;;;2.23;1.33;;;;;;;-3.34;100.00;102459.44;4949508;28;20589;-78
2023/04/03 02:56:28;;;;;;;2.90;0.83;;;;;;;-3.29;100.00;102458.03;4936002;28;20041;-77
2023/04/03 02:58:55;;;;;;;1.87;1.50;;;;;;;-3.35;100.00;102459.34;4945392;28;20050;-77
2023/04/03 03:01:22;;;;;;;6.73;2.17;;;;;;;-3.40;100.00;102456.44;4982890;28;20035;-77
2023/04/03 03:03:48;;;;;;;5.27;1.53;;;;;;;-3.33;100.00;102455.16;4948632;28;20043;-77
2023/04/03 03:06:16;;;;;;;3.23;1.10;;;;;;;-3.44;100.00;102457.06;4964795;28;20050;-78
2023/04/03 03:08:43;;;;;;;2.37;1.40;;;;;;;-3.33;100.00;102450.00;4947933;28;20035;-77
2023/04/03 03:11:10;;;;;;;3.10;1.10;;;;;;;-3.42;100.00;102452.88;4950186;28;20105;-77
2023/04/03 03:13:37;;;;;;;2.63;1.63;;;;;;;-3.43;100.00;102457.16;4950939;28;20069;-78
2023/04/03 03:16:04;;;;;;;2.37;0.97;;;;;;;-3.34;100.00;102456.84;4950396;28;20519;-77
2023/04/03 03:18:31;;;;;;;2.30;1.20;;;;;;;-3.40;100.00;102457.34;4948138;28;20050;-78
2023/04/03 03:20:59;;;;;;;3.90;1.13;;;;;;;-3.24;100.00;102455.75;4949112;28;20059;-77
2023/04/03 03:23:28;;;;;;;3.30;1.20;;;;;;;-3.41;100.00;102460.72;4942999;28;20142;-77
2023/04/03 03:26:00;;;;;;;5.27;1.13;;;;;;;-3.54;100.00;102460.72;4983954;28;20046;-77
2023/04/03 03:28:27;;;;;;;1.43;1.00;;;;;;;-3.52;100.00;102458.25;4966999;28;20049;-78
2023/04/03 03:30:53;;;;;;;2.77;1.30;;;;;;;-3.48;100.00;102460.22;4951165;28;20058;-77
2023/04/03 03:33:20;;;;;;;4.17;1.20;;;;;;;-3.57;100.00;102463.09;4956825;28;20047;-78
2023/04/03 03:35:46;;;;;;;4.67;1.20;;;;;;;-3.66;100.00;102466.78;4982270;28;20043;-78
2023/04/03 03:38:13;;;;;;;3.57;1.23;;;;;;;-3.63;100.00;102466.97;4963736;28;20043;-78
2023/04/03 03:40:40;;;;;;;2.50;1.00;;;;;;;-3.50;100.00;102473.06;4979760;28;20059;-78
2023/04/03 03:43:06;;;;;;;3.50;1.53;;;;;;;-3.60;100.00;102464.63;4948599;28;20378;-78
2023/04/03 03:45:33;;;;;;;4.57;1.80;;;;;;;-3.49;100.00;102468.78;4932062;29;20046;-78
2023/04/03 03:48:01;;;;;;;3.83;1.10;;;;;;;-3.46;100.00;102476.72;4936026;28;20039;-78
2023/04/03 03:50:28;;;;;;;2.60;1.00;;;;;;;-3.57;100.00;102470.84;4954821;28;21579;-78
2023/04/03 03:52:54;;;;;;;3.50;1.10;;;;;;;-3.46;100.00;102463.78;4966683;28;20046;-78
2023/04/03 03:55:21;;;;;;;5.27;1.40;;;;;;;-3.52;100.00;102471.19;4950810;28;20698;-78
2023/04/03 03:57:48;;;;;;;5.27;1.20;;;;;;;-3.47;100.00;102469.75;4944087;28;20051;-78
2023/04/03 04:00:15;;;;;;;4.03;1.30;;;;;;;-3.55;100.00;102465.78;4930445;28;20050;-78
2023/04/03 04:02:42;;;;;;;3.40;1.13;;;;;;;-3.62;100.00;102463.59;4944031;28;20089;-78
2023/04/03 04:05:09;;;;;;;2.30;1.00;;;;;;;-3.67;100.00;102465.00;4945584;28;20049;-78
2023/04/03 04:07:36;;;;;;;2.33;0.93;;;;;;;-3.72;100.00;102470.75;4941630;28;20043;-77
2023/04/03 04:10:03;;;;;;;1.60;0.83;;;;;;;-3.67;100.00;102471.06;4944705;28;20045;-78
2023/04/03 04:12:30;;;;;;;1.27;1.07;;;;;;;-3.82;100.00;102467.47;4973923;28;20039;-78
2023/04/03 04:14:57;;;;;;;3.80;1.10;;;;;;;-3.75;100.00;102473.13;4940351;28;20075;-78
2023/04/03 04:17:23;;;;;;;3.43;1.13;;;;;;;-3.88;100.00;102479.94;4943445;28;20039;-78
2023/04/03 04:19:50;;;;;;;3.73;1.10;;;;;;;-3.83;100.00;102476.88;4941212;28;20047;-77
2023/04/03 04:22:19;;;;;;;2.83;1.00;;;;;;;-3.90;100.00;102478.97;4929904;28;20047;-77
2023/04/03 04:24:45;;;;;;;3.17;1.00;;;;;;;-3.91;100.00;102478.06;4943038;28;20039;-78
2023/04/03 04:27:12;;;;;;;4.40;1.57;;;;;;;-3.88;100.00;102475.69;5012884;23;20055;-78
2023/04/03 04:32:27;;;;;;;4.10;1.20;;;;;;;-3.95;100.00;102478.66;4966510;28;20107;-78
2023/04/03 04:34:53;;;;;;;7.07;1.63;;;;;;;-3.94;100.00;102474.41;4931333;28;20563;-77
2023/04/03 04:37:20;;;;;;;2.07;1.00;;;;;;;-4.03;100.00;102479.84;4968558;28;20039;-76
2023/04/03 04:39:47;;;;;;;3.47;1.30;;;;;;;-3.99;100.00;102481.81;4933226;28;20617;-77
2023/04/03 04:42:13;;;;;;;3.27;1.00;;;;;;;-3.90;100.00;102484.13;4950960;28;20040;-77
2023/04/03 04:44:44;;;;;;;3.20;1.07;;;;;;;-3.96;100.00;102479.44;4951194;28;20039;-77
2023/04/03 04:47:10;;;;;;;3.03;1.00;;;;;;;-3.98;100.00;102484.50;4954828;28;20492;-77
2023/04/03 04:49:37;;;;;;;2.47;1.30;;;;;;;-3.91;100.00;102482.34;4954284;28;20144;-77
2023/04/03 04:52:04;;;;;;;3.30;1.50;;;;;;;-3.88;100.00;102482.53;4973864;28;20050;-78
2023/04/03 04:54:31;;;;;;;2.13;1.20;;;;;;;-3.87;100.00;102486.91;4937807;28;20051;-79
2023/04/03 04:56:57;;;;;;;2.73;1.00;;;;;;;-3.84;100.00;102490.59;4939471;28;20042;-77
2023/04/03 04:59:24;;;;;;;2.57;1.30;;;;;;;-3.83;100.00;102491.50;4965496;28;20038;-78
2023/04/03 05:01:51;;;;;;;3.63;1.30;;;;;;;-3.82;100.00;102486.41;4971091;28;20195;-80
2023/04/03 05:04:18;;;;;;;2.70;1.20;;;;;;;-3.74;100.00;102490.41;4931067;28;20560;-78
2023/04/03 05:06:44;;;;;;;6.33;1.40;;;;;;;-3.70;100.00;102507.00;4952603;28;20107;-79
2023/04/03 05:09:12;;;;;;;3.23;1.67;;;;;;;-3.71;100.00;102505.22;4948891;28;20042;-78
2023/04/03 05:11:38;;;;;;;3.83;1.20;;;;;;;-3.65;100.00;102507.31;4923762;28;20043;-78
2023/04/03 05:14:06;;;;;;;4.30;1.50;;;;;;;-3.70;100.00;102504.41;4962241;28;20503;-78
2023/04/03 05:16:33;;;;;;;3.50;1.00;;;;;;;-3.69;100.00;102512.28;4942331;28;20427;-78
2023/04/03 05:18:59;;;;;;;4.40;1.33;;;;;;;-3.60;100.00;102505.94;4962003;28;20075;-80
2023/04/03 05:21:29;;;;;;;2.87;1.30;;;;;;;-3.56;100.00;102511.41;4944310;28;20094;-78
2023/04/03 05:23:55;;;;;;;3.10;1.83;;;;;;;-3.32;100.00;102508.63;4942881;28;20061;-79
2023/04/03 05:26:22;;;;;;;1.97;1.00;;;;;;;-3.29;100.00;102509.72;4935371;28;20584;-78
2023/04/03 05:28:49;;;;;;;3.17;1.50;;;;;;;-3.24;100.00;102510.94;4946395;28;20497;-80
2023/04/03 05:31:15;;;;;;;2.40;1.00;;;;;;;-3.20;100.00;102510.31;4928077;28;20043;-77
2023/04/03 05:33:42;;;;;;;2.83;1.20;;;;;;;-3.15;100.00;102514.09;4933876;28;20133;-78
2023/04/03 05:36:09;;;;;;;3.13;1.40;;;;;;;-3.12;100.00;102515.97;4959307;28;20522;-77
2023/04/03 05:38:36;;;;;;;2.60;1.10;;;;;;;-3.05;100.00;102518.16;4926085;28;20046;-77
2023/04/03 05:41:03;;;;;;;3.67;1.60;;;;;;;-3.01;100.00;102521.88;4946057;28;20424;-78
2023/04/03 05:43:30;;;;;;;5.07;2.17;;;;;;;-2.95;100.00;102520.53;4949922;28;21708;-77
2023/04/03 05:45:56;;;;;;;4.33;1.10;;;;;;;-2.90;100.00;102516.56;4932932;28;20043;-77
2023/04/03 05:48:23;;;;;;;1.80;1.20;;;;;;;-2.88;100.00;102519.25;4961829;28;20470;-78
2023/04/03 05:50:50;;;;;;;4.20;1.30;;;;;;;-2.89;100.00;102517.47;4948308;28;20105;-77
2023/04/03 05:53:27;;;;;;;4.60;1.10;;;;;;;-2.72;100.00;102516.84;4950440;28;20047;-77
2023/04/03 05:55:54;;;;;;;4.37;0.93;;;;;;;-2.65;100.00;102519.00;4946176;28;20050;-77
2023/04/03 05:58:20;;;;;;;3.23;0.97;;;;;;;-2.50;100.00;102521.66;4948185;28;20043;-78
2023/04/03 06:00:47;;;;;;;2.23;1.23;;;;;;;-2.44;100.00;102523.72;4945201;28;20043;-77
2023/04/03 06:03:14;;;;;;;3.37;1.10;;;;;;;-2.21;100.00;102532.91;4941160;28;20134;-77
2023/04/03 06:05:41;;;;;;;2.53;0.90;;;;;;;-2.20;100.00;102527.81;4929606;29;20163;-77
2023/04/03 06:08:08;;;;;;;2.23;1.00;;;;;;;-2.18;100.00;102525.34;4935653;29;20430;-77
2023/04/03 06:10:36;;;;;;;6.63;1.80;;;;;;;-2.23;100.00;102524.16;4959893;28;20046;-78
2023/04/03 06:13:03;;;;;;;2.53;1.30;;;;;;;-2.12;100.00;102528.28;4929022;28;20043;-78
2023/04/03 06:15:30;;;;;;;4.67;1.60;;;;;;;-2.15;100.00;102528.13;4956737;28;20118;-77
2023/04/03 06:17:56;;;;;;;4.87;1.27;;;;;;;-2.16;100.00;102528.91;4947969;28;20130;-78
2023/04/03 06:20:23;;;;;;;3.73;1.20;;;;;;;-2.03;100.00;102529.72;4963337;28;20074;-78
2023/04/03 06:22:50;;;;;;;2.53;1.20;;;;;;;-2.06;100.00;102529.56;4948734;29;20043;-77
2023/04/03 06:25:18;;;;;;;3.67;1.10;;;;;;;-1.81;100.00;102534.50;4963304;28;20062;-78
2023/04/03 06:27:46;;;;;;;1.87;1.20;;;;;;;-1.73;100.00;102533.28;4933421;28;20439;-78
2023/04/03 06:30:13;;;;;;;2.77;1.13;;;;;;;-1.50;100.00;102541.50;4948878;28;20061;-77
2023/04/03 06:32:40;;;;;;;5.07;1.20;;;;;;;-1.34;100.00;102535.53;4942039;28;20047;-77
2023/04/03 06:35:08;;;;;;;4.80;1.93;;;;;;;-1.18;100.00;102541.69;4948447;28;20046;-77
2023/04/03 06:37:35;;;;;;;2.43;1.20;;;;;;;-1.20;100.00;102551.06;4957347;28;20415;-77
2023/04/03 06:40:27;;;;;;;2.47;1.33;;;;;;;-1.08;100.00;102544.81;4938118;23;20046;31
2023/04/03 06:42:54;;;;;;;1.27;1.00;;;;;;;-1.00;100.00;102553.91;4874931;29;20051;-80
2023/04/03 06:45:21;;;;;;;4.00;1.70;;;;;;;-0.90;100.00;102551.91;4932217;29;20074;-82
2023/04/03 06:47:48;;;;;;;2.70;1.10;;;;;;;-0.72;100.00;102557.22;4916127;29;20164;-81
2023/04/03 06:50:15;;;;;;;4.13;1.40;;;;;;;-0.39;100.00;102552.09;4910764;29;20073;-80
2023/04/03 06:52:41;;;;;;;2.43;1.07;;;;;;;-0.38;100.00;102565.16;4898172;29;20056;-79
2023/04/03 06:55:09;;;;;;;2.87;1.07;;;;;;;-0.36;100.00;102565.25;4894272;29;20101;-80
2023/04/03 06:57:36;;;;;;;1.77;1.27;;;;;;;-0.31;100.00;102562.09;4920803;29;20111;-81
2023/04/03 07:00:05;;;;;;;2.90;1.10;;;;;;;-0.07;100.00;102570.31;4913206;29;20054;-80
2023/04/03 07:02:34;;;;;;;1.60;1.00;;;;;;;0.73;100.00;102566.63;4896816;29;20071;-81
2023/04/03 07:05:01;;;;;;;3.10;1.10;;;;;;;1.78;100.00;102563.88;4905044;29;20059;-82
2023/04/03 07:07:27;;;;;;;4.57;1.73;;;;;;;2.49;87.75;102563.56;4916287;29;20050;-81
2023/04/03 07:09:54;;;;;;;2.17;1.20;;;;;;;3.34;83.76;102550.50;4910296;29;20048;-82
2023/04/03 07:12:22;;;;;;;3.37;1.40;;;;;;;4.17;82.08;102553.63;4918061;29;20128;-81
2023/04/03 07:14:49;;;;;;;2.67;1.07;;;;;;;4.44;78.57;102559.84;4905491;29;20048;-82
2023/04/03 07:17:16;;;;;;;2.33;1.23;;;;;;;3.49;68.58;102554.56;4936484;29;20419;-80
2023/04/03 07:19:42;;;;;;;1.80;1.00;;;;;;;3.23;69.05;102566.59;4934604;29;20040;-81
2023/04/03 07:22:10;;;;;;;2.63;1.00;;;;;;;3.44;73.18;102562.22;4922703;29;20035;-81
2023/04/03 07:24:37;;;;;;;1.90;0.90;;;;;;;3.50;67.51;102561.56;4914239;29;20066;-80
2023/04/03 07:27:04;;;;;;;2.57;1.10;;;;;;;3.14;68.91;102566.25;4948468;28;20486;-80
2023/04/03 07:29:30;;;;;;;3.47;0.90;;;;;;;3.49;74.40;102560.69;4953095;28;20437;-81
2023/04/03 07:31:57;;;;;;;1.47;0.87;;;;;;;3.88;74.06;102563.94;4925312;29;20048;-81
2023/04/03 07:34:24;;;;;;;3.57;1.27;;;;;;;3.62;66.72;102564.69;4905738;29;20036;-81
2023/04/03 07:36:51;;;;;;;3.93;1.33;;;;;;;2.97;61.46;102562.94;4910421;29;20051;-81
2023/04/03 07:39:18;;;;;;;2.60;0.83;;;;;;;2.81;65.30;102575.34;4916052;29;20075;-80
2023/04/03 07:41:46;;;;;;;3.97;1.20;;;;;;;2.44;64.97;102580.75;4942054;28;20083;-80
2023/04/03 07:44:13;;;;;;;3.20;0.60;;;;;;;2.53;68.66;102581.13;4945742;28;20056;-81
2023/04/03 07:46:40;;;;;;;4.07;1.63;;;;;;;2.43;64.24;102585.88;4918627;29;20051;-80
2023/04/03 07:49:07;;;;;;;2.27;1.20;;;;;;;2.33;63.93;102589.78;4916924;29;20054;-80
2023/04/03 07:51:34;;;;;;;3.13;1.07;;;;;;;2.31;61.53;102581.03;4918802;29;20069;-81
2023/04/03 07:54:03;;;;;;;4.07;1.20;;;;;;;2.61;68.90;102593.63;4899258;29;20062;-80
2023/04/03 07:56:30;;;;;;;3.50;1.23;;;;;;;2.64;63.30;102586.81;4917793;29;20036;-82
2023/04/03 07:58:57;;;;;;;2.43;0.97;;;;;;;2.71;64.83;102586.25;4921189;29;20043;-81
2023/04/03 08:01:23;;;;;;;1.30;0.80;;;;;;;2.75;67.10;102602.91;4904372;29;20040;-82
2023/04/03 08:03:50;;;;;;;1.97;0.90;;;;;;;2.34;61.77;102594.19;4882314;29;20184;-79
2023/04/03 08:06:17;;;;;;;2.20;0.90;;;;;;;2.58;64.92;102603.91;4902596;29;20054;-81
2023/04/03 08:08:58;;;;;;;1.90;0.90;;;;;;;2.57;61.49;102599.53;4934013;28;20062;-81
2023/04/03 08:11:26;;;;;;;3.37;0.77;;;;;;;2.90;68.24;102595.72;4921531;29;21688;-81
2023/04/03 08:13:53;;;;;;;3.67;1.40;;;;;;;3.14;61.41;102579.31;4920654;29;20600;-79
2023/04/03 08:16:22;;;;;;;2.47;1.00;;;;;;;3.21;61.90;102583.94;4924301;29;20036;-81
2023/04/03 08:18:49;;;;;;;4.97;1.57;;;;;;;2.87;56.15;102584.28;4901287;29;20420;-82
2023/04/03 08:21:16;;;;;;;1.03;0.80;;;;;;;2.84;56.38;102587.63;4901915;29;20044;-80
2023/04/03 08:23:43;;;;;;;2.97;1.00;;;;;;;2.95;59.49;102586.38;4931766;29;20490;-81
2023/04/03 08:26:15;;;;;;;4.20;0.90;;;;;;;3.19;59.55;102588.19;4903540;29;20036;-82
2023/04/03 08:28:42;;;;;;;2.90;1.70;;;;;;;3.22;58.92;102593.56;4892036;29;20044;-80
2023/04/03 08:31:15;;;;;;;3.67;1.43;;;;;;;3.26;59.99;102603.28;4920306;29;20047;-80
2023/04/03 08:33:41;;;;;;;2.27;1.10;;;;;;;3.22;61.11;102601.41;4917985;29;20118;-79
2023/04/03 08:36:18;;;;;;;2.83;1.60;;;;;;;2.87;60.05;102599.94;4928624;29;20047;-80
2023/04/03 08:38:44;;;;;;;4.80;1.20;;;;;;;3.08;64.80;102598.22;4903899;29;20054;-80
2023/04/03 08:41:46;;;;;;;2.07;1.00;;;;;;;3.06;59.57;102595.53;4930845;29;20135;-81
2023/04/03 08:44:22;;;;;;;1.30;1.20;;;;;;;3.17;63.98;102597.69;4876177;29;20044;-81
2023/04/03 08:47:18;;;;;;;3.10;1.10;;;;;;;3.36;67.65;102593.28;4913004;29;20079;-79
2023/04/03 08:49:50;;;;;;;7.07;1.50;;;;;;;3.41;59.52;102592.56;4914834;29;20126;-80
2023/04/03 08:52:41;;;;;;;4.97;1.60;;;;;;;3.49;59.35;102580.69;4934353;29;20075;-81
2023/04/03 08:55:23;;;;;;;3.17;1.23;;;;;;;3.33;57.53;102593.16;4925414;29;20055;-80
2023/04/03 08:58:02;;;;;;;2.37;1.17;;;;;;;3.50;60.44;102585.97;4909182;29;20055;-80
2023/04/03 09:00:41;;;;;;;2.70;1.10;;;;;;;3.59;55.69;102585.44;4926349;29;20044;-80
2023/04/03 09:03:12;;;;;;;2.10;1.30;;;;;;;3.85;58.63;102576.88;4916783;29;20131;-79
2023/04/03 09:06:04;;;;;;;3.03;1.20;;;;;;;3.94;54.56;102582.44;4923310;29;20043;-79
2023/04/03 09:08:42;;;;;;;2.97;1.27;;;;;;;3.82;55.12;102582.00;4896526;29;20149;-80
2023/04/03 09:11:51;;;;;;;4.13;1.00;;;;;;;3.71;56.33;102578.09;4944927;29;20058;-80
2023/04/03 09:14:41;;;;;;;3.60;1.00;;;;;;;3.80;55.56;102575.81;4834250;29;20045;-81
2023/04/03 09:17:20;;;;;;;3.17;0.97;;;;;;;4.06;55.14;102571.56;4946891;29;20047;-80
2023/04/03 09:19:54;;;;;;;3.80;1.30;;;;;;;4.26;52.59;102579.22;4909607;28;20055;-80
2023/04/03 09:22:25;;;;;;;1.08;0.90;;;;;;;4.43;51.91;102567.63;4917189;29;20036;-80
2023/04/03 09:25:02;;;;;;;1.50;0.80;;;;;;;4.76;52.89;102566.19;4901397;29;20043;-79
2023/04/03 09:27:29;;;;;;;1.30;0.87;;;;;;;5.39;52.33;102555.13;4928472;29;20043;-81
2023/04/03 09:29:56;;;;;;;1.80;0.87;;;;;;;5.56;50.05;102551.28;4927328;29;20622;-80
2023/04/03 09:32:30;;;;;;;5.37;1.47;;;;;;;5.78;51.41;102552.81;4916671;29;20036;-78
2023/04/03 09:35:01;;;;;;;4.28;0.90;;;;;;;5.72;47.25;102571.00;4915718;29;20048;-79
2023/04/03 09:37:41;;;;;;;10.73;7.47;;;;;;;5.54;49.68;102558.19;4921358;29;20090;-79
2023/04/03 09:40:34;;;;;;;4.90;1.40;;;;;;;5.42;49.67;102564.81;4925836;29;20061;-79
2023/04/03 09:43:20;;;;;;;2.70;1.00;;;;;;;5.20;47.28;102571.09;4913278;29;20084;-79
2023/04/03 09:45:48;;;;;;;1.60;1.00;;;;;;;4.94;49.25;102563.28;4933145;29;20047;-79
2023/04/03 09:48:15;;;;;;;3.37;1.27;;;;;;;5.05;49.40;102561.94;4920102;29;20097;-79
2023/04/03 09:51:01;;;;;;;3.07;1.17;;;;;;;5.49;49.64;102559.81;4937860;29;20040;-80
2023/04/03 09:53:41;;;;;;;2.13;0.87;;;;;;;5.73;50.03;102557.03;4924213;29;20043;-82
2023/04/03 09:56:15;;;;;;;1.57;1.10;;;;;;;5.68;49.02;102552.50;4923977;29;20047;-80
2023/04/03 09:58:45;;;;;;;2.17;1.00;;;;;;;5.51;46.33;102547.63;4953248;29;20119;-81
2023/04/03 10:01:27;;;;;;;2.07;0.90;;;;;;;5.42;47.93;102542.09;4914333;29;20040;-80
2023/04/03 10:04:14;;;;;;;3.73;1.63;;;;;;;4.97;47.37;102552.94;4920887;29;20036;-82
2023/04/03 10:06:50;;;;;;;1.87;0.97;;;;;;;5.04;49.58;102554.00;4924718;29;20066;-79
2023/04/03 10:09:20;;;;;;;1.93;1.30;;;;;;;4.95;49.67;102551.97;4910539;29;20032;-80
2023/04/03 10:12:06;;;;;;;1.97;0.80;;;;;;;4.87;48.98;102550.81;4922598;29;20047;-79
2023/04/03 10:14:40;;;;;;;4.97;1.40;;;;;;;4.83;48.00;102542.81;4899728;29;20051;-80
2023/04/03 10:17:27;;;;;;;2.77;0.80;;;;;;;4.76;49.90;102546.97;4925221;29;20036;-80
2023/04/03 10:20:31;;;;;;;7.18;1.40;;;;;;;4.60;50.02;102540.31;4911431;29;20069;-81
2023/04/03 10:23:19;;;;;;;2.35;1.27;;;;;;;4.64;51.65;102546.56;4910302;29;20059;-80
2023/04/03 10:25:55;;;;;;;2.27;1.10;;;;;;;4.49;51.27;102546.91;4950840;28;20058;-80
2023/04/03 10:28:31;;;;;;;1.37;0.93;;;;;;;4.30;50.84;102558.47;4918402;29;20040;-80
2023/04/03 10:31:07;;;;;;;4.27;1.03;;;;;;;4.36;50.12;102549.94;4931549;29;20042;-78
2023/04/03 10:33:55;;;;;;;2.03;0.97;;;;;;;4.45;52.40;102550.25;4918641;29;20111;-81
2023/04/03 10:36:44;;;;;;;2.43;0.80;;;;;;;4.47;53.06;102549.50;4912739;29;20043;-81
2023/04/03 10:39:26;;;;;;;2.10;0.93;;;;;;;4.41;52.14;102540.53;4912619;29;20780;-82
2023/04/03 10:42:09;;;;;;;4.40;1.38;;;;;;;4.41;52.17;102540.53;4899557;29;20040;-82
2023/04/03 10:44:55;;;;;;;2.47;1.07;;;;;;;4.41;54.14;102556.22;4914883;29;20036;-82
2023/04/03 10:47:58;;;;;;;1.50;0.97;;;;;;;4.12;52.04;102543.03;4924317;29;20044;-83
2023/04/03 10:50:40;;;;;;;3.63;1.20;;;;;;;4.10;52.59;102541.16;4929472;29;20068;-81
2023/04/03 10:53:38;;;;;;;1.57;1.00;;;;;;;4.22;52.71;102536.38;4940951;29;20063;-80
2023/04/03 10:56:16;;;;;;;2.80;1.07;;;;;;;4.01;52.51;102543.44;4935921;29;20154;-80
2023/04/03 10:58:50;;;;;;;2.30;1.10;;;;;;;4.15;55.67;102531.78;4942592;29;20236;-80
2023/04/03 11:01:38;;;;;;;2.77;1.10;;;;;;;4.29;53.92;102525.31;4932981;29;20052;-80
2023/04/03 11:04:14;;;;;;;2.60;1.10;;;;;;;4.49;51.22;102539.97;4912124;29;20039;-81
2023/04/03 11:06:45;;;;;;;2.90;1.10;;;;;;;4.34;53.13;102531.56;4916790;29;20062;-82
2023/04/03 11:09:24;;;;;;;3.53;1.30;;;;;;;4.07;52.71;102531.50;4904792;29;20062;-81
2023/04/03 11:11:55;;;;;;;4.73;1.07;;;;;;;4.18;53.25;102524.91;4933486;29;20047;-81
2023/04/03 11:14:29;;;;;;;2.60;1.50;;;;;;;3.79;54.70;102518.25;4925032;29;20552;-82
2023/04/03 11:17:04;;;;;;;2.05;0.93;;;;;;;4.01;55.99;102531.25;4923582;29;20050;-81
2023/04/03 11:19:39;;;;;;;2.20;0.90;;;;;;;3.98;55.47;102514.59;4932564;29;20764;-81
2023/04/03 11:22:22;;;;;;;5.73;1.50;;;;;;;3.96;55.22;102525.00;4941328;29;20043;-81
2023/04/03 11:24:58;;;;;;;5.67;1.37;;;;;;;4.22;58.24;102518.06;4928694;29;20047;-81
2023/04/03 11:27:27;;;;;;;3.88;1.10;;;;;;;4.35;57.52;102507.19;4897482;29;20693;-82
2023/04/03 11:29:54;;;;;;;5.67;1.10;;;;;;;4.30;55.52;102519.22;4910331;29;20052;-82
2023/04/03 11:32:35;;;;;;;2.23;1.10;;;;;;;4.11;55.45;102501.97;4953993;29;20044;-81
2023/04/03 11:35:02;;;;;;;2.00;1.33;;;;;;;4.53;58.24;102499.06;4920419;29;20044;-81
2023/04/03 11:37:38;;;;;;;1.67;1.13;;;;;;;4.90;55.97;102495.06;4914066;29;20077;-81
2023/04/03 11:40:21;;;;;;;1.60;1.40;;;;;;;5.42;56.27;102484.44;4940485;29;20541;-82
2023/04/03 11:43:05;;;;;;;1.40;1.00;;;;;;;5.88;53.53;102483.13;4913061;29;20116;-82